Time;durP1;ratioP1;P1;durP2;ratioP2;P2;SDS_P1;SDS_P2;PMS_P1;PMS_P2;Temp;Humidity;BMP_temperature;BMP_pressure;BME280_temperature;BME280_humidity;BME280_pressure;Samples;Min_cycle;Max_cycle;Signal;HPM_P1;HPM_P2
2023/07/30 00:01:19;;;;;;;20.38;13.95;;;16.80;99.90;;;;;;5022232;28;20060;-73
2023/07/30 00:03:45;;;;;;;21.13;13.38;;;16.70;99.90;;;;;;5022243;28;20501;-73
2023/07/30 00:06:11;;;;;;;19.92;13.85;;;16.70;99.90;;;;;;5023901;28;20036;-73
2023/07/30 00:08:36;;;;;;;20.35;11.70;;;16.70;99.90;;;;;;5023270;28;20049;-73
2023/07/30 00:11:02;;;;;;;17.40;12.43;;;16.70;99.90;;;;;;5023484;28;20020;-73
2023/07/30 00:13:28;;;;;;;18.23;12.63;;;16.70;99.90;;;;;;5021603;28;20036;-73
2023/07/30 00:15:53;;;;;;;18.17;12.52;;;16.60;99.90;;;;;;5022628;28;20510;-73
2023/07/30 00:18:19;;;;;;;21.25;13.93;;;16.60;99.90;;;;;;5023131;28;20449;-73
2023/07/30 00:20:44;;;;;;;19.65;12.65;;;16.60;99.90;;;;;;5023642;28;20033;-73
2023/07/30 00:23:10;;;;;;;21.27;14.05;;;16.60;99.90;;;;;;5023204;28;20434;-72
2023/07/30 00:25:36;;;;;;;23.13;13.15;;;16.60;99.90;;;;;;5023040;28;20030;-73
2023/07/30 00:28:02;;;;;;;22.67;14.35;;;16.50;99.90;;;;;;5023227;28;20088;-72
2023/07/30 00:30:28;;;;;;;25.02;14.43;;;16.50;99.90;;;;;;5022791;28;20037;-73
2023/07/30 00:32:53;;;;;;;21.30;14.52;;;16.50;99.90;;;;;;5023049;28;20026;-72
2023/07/30 00:35:19;;;;;;;21.48;14.10;;;16.50;99.90;;;;;;5021769;28;20032;-73
2023/07/30 00:37:45;;;;;;;21.90;14.40;;;16.60;99.90;;;;;;5022711;28;20026;-73
2023/07/30 00:40:11;;;;;;;24.65;15.10;;;16.50;99.90;;;;;;5021846;28;20037;-73
2023/07/30 00:42:36;;;;;;;20.98;14.15;;;16.50;99.90;;;;;;5022820;28;20045;-73
2023/07/30 00:45:03;;;;;;;21.45;15.15;;;16.50;99.90;;;;;;5022418;28;20344;-72
2023/07/30 00:47:28;;;;;;;22.55;14.80;;;16.50;99.90;;;;;;5022588;28;20041;-74
2023/07/30 00:49:54;;;;;;;23.48;15.07;;;16.50;99.90;;;;;;5020399;28;20040;-73
2023/07/30 00:52:22;;;;;;;23.13;15.32;;;16.50;99.90;;;;;;5022230;28;20104;-72
2023/07/30 00:54:49;;;;;;;21.65;13.88;;;16.40;99.90;;;;;;5022463;28;20049;-73
2023/07/30 00:57:18;;;;;;;25.17;15.18;;;16.40;99.90;;;;;;5021350;28;20059;-73
2023/07/30 00:59:44;;;;;;;21.08;14.98;;;16.40;99.90;;;;;;5022525;28;20045;-74
2023/07/30 01:02:09;;;;;;;28.23;14.63;;;16.40;99.90;;;;;;5022745;28;20038;-74
2023/07/30 01:04:37;;;;;;;20.63;14.85;;;16.30;99.90;;;;;;5021310;28;20026;-72
2023/07/30 01:07:03;;;;;;;22.30;14.05;;;16.30;99.90;;;;;;5020561;28;20030;-73
2023/07/30 01:09:29;;;;;;;27.08;14.82;;;16.30;99.90;;;;;;5022536;28;20065;-73
2023/07/30 01:11:55;;;;;;;20.85;13.88;;;16.30;99.90;;;;;;5021027;28;20033;-73
2023/07/30 01:14:22;;;;;;;20.80;13.23;;;16.30;99.90;;;;;;5020661;28;20029;-73
2023/07/30 01:16:48;;;;;;;24.10;13.35;;;16.20;99.90;;;;;;5021138;28;20122;-73
2023/07/30 01:19:14;;;;;;;18.65;12.50;;;16.20;99.90;;;;;;5021971;28;20026;-74
2023/07/30 01:21:40;;;;;;;24.83;13.75;;;16.20;99.90;;;;;;5022452;28;20501;-74
2023/07/30 01:24:06;;;;;;;21.05;13.57;;;16.10;99.90;;;;;;5021398;28;20036;-73
2023/07/30 01:26:38;;;;;;;19.77;12.60;;;16.20;99.90;;;;;;5020762;28;20029;-73
2023/07/30 01:29:10;;;;;;;23.83;12.57;;;16.10;99.90;;;;;;5022192;28;20038;-74
2023/07/30 01:31:39;;;;;;;22.85;11.70;;;16.10;99.90;;;;;;5022150;28;20037;-73
2023/07/30 01:34:06;;;;;;;19.42;12.13;;;16.10;99.90;;;;;;5020240;28;20037;-74
2023/07/30 01:36:33;;;;;;;21.05;12.32;;;16.00;99.90;;;;;;5020060;28;20029;-73
2023/07/30 01:38:59;;;;;;;17.73;10.82;;;16.10;99.90;;;;;;5021956;28;20030;-73
2023/07/30 01:41:25;;;;;;;20.73;11.80;;;16.00;99.90;;;;;;5020236;28;20488;-72
2023/07/30 01:43:50;;;;;;;19.48;10.60;;;16.00;99.90;;;;;;5022184;28;20034;-73
2023/07/30 01:46:16;;;;;;;18.40;10.63;;;16.00;99.90;;;;;;5022147;28;20065;-73
2023/07/30 01:48:41;;;;;;;23.92;9.98;;;16.00;99.90;;;;;;5021886;28;20042;-73
2023/07/30 01:51:07;;;;;;;16.02;9.95;;;16.00;99.90;;;;;;5022156;28;20018;-72
2023/07/30 01:53:32;;;;;;;19.95;9.63;;;15.90;99.90;;;;;;5020671;28;20068;-73
2023/07/30 01:55:58;;;;;;;17.73;9.85;;;15.90;99.90;;;;;;5022006;28;20061;-74
2023/07/30 01:58:24;;;;;;;22.10;10.38;;;15.90;99.90;;;;;;5021932;28;20050;-72
2023/07/30 02:00:49;;;;;;;20.27;9.75;;;15.90;99.90;;;;;;5023478;28;20033;-73
2023/07/30 02:03:15;;;;;;;19.77;9.63;;;15.90;99.90;;;;;;5024692;28;20479;-73
2023/07/30 02:05:41;;;;;;;19.98;10.13;;;15.80;99.90;;;;;;5024814;28;20037;-73
2023/07/30 02:08:06;;;;;;;19.70;10.38;;;15.80;99.90;;;;;;5025165;28;20033;-72
2023/07/30 02:10:32;;;;;;;16.02;10.48;;;15.80;99.90;;;;;;5025862;28;20092;-72
2023/07/30 02:12:58;;;;;;;20.60;10.85;;;15.80;99.90;;;;;;5024508;28;20030;-73
2023/07/30 02:15:23;;;;;;;22.70;11.60;;;15.70;99.90;;;;;;5025505;28;20105;-71
2023/07/30 02:17:49;;;;;;;22.10;11.57;;;15.70;99.90;;;;;;5025993;28;20022;-72
2023/07/30 02:20:15;;;;;;;17.70;10.30;;;15.70;99.90;;;;;;5024677;28;20082;-72
2023/07/30 02:22:40;;;;;;;19.48;10.90;;;15.70;99.90;;;;;;5024273;28;20033;-73
2023/07/30 02:25:06;;;;;;;20.52;10.63;;;15.70;99.90;;;;;;5025911;28;20022;-73
2023/07/30 02:27:32;;;;;;;21.83;11.10;;;15.60;99.90;;;;;;5025452;28;20045;-73
2023/07/30 02:29:57;;;;;;;26.45;11.95;;;15.70;99.90;;;;;;5024001;28;20021;-72
2023/07/30 02:32:23;;;;;;;21.88;12.07;;;15.70;99.90;;;;;;5025577;28;20446;-73
2023/07/30 02:34:48;;;;;;;18.27;11.05;;;15.60;99.90;;;;;;5025899;28;20096;-73
2023/07/30 02:37:14;;;;;;;20.58;11.23;;;15.60;99.90;;;;;;5024898;28;20259;-74
2023/07/30 02:39:40;;;;;;;21.05;11.25;;;15.60;99.90;;;;;;5024298;28;20045;-74
2023/07/30 02:42:06;;;;;;;21.38;10.98;;;15.60;99.90;;;;;;5025314;28;20022;-72
2023/07/30 02:44:32;;;;;;;24.27;10.75;;;15.60;99.90;;;;;;5024980;28;20026;-73
2023/07/30 02:46:57;;;;;;;18.00;10.77;;;15.50;99.90;;;;;;5023665;28;20037;-73
2023/07/30 02:49:23;;;;;;;17.92;10.70;;;15.50;99.90;;;;;;5025027;28;20052;-72
2023/07/30 02:51:48;;;;;;;18.60;10.40;;;15.50;99.90;;;;;;5025077;28;20132;-72
2023/07/30 02:54:20;;;;;;;20.40;9.95;;;15.50;99.90;;;;;;5023928;28;20022;-75
2023/07/30 02:56:46;;;;;;;21.92;10.80;;;15.50;99.90;;;;;;5023420;28;20036;-71
2023/07/30 02:59:11;;;;;;;19.70;10.30;;;15.40;99.90;;;;;;5025317;28;20078;-72
2023/07/30 03:01:37;;;;;;;22.40;10.57;;;15.40;99.90;;;;;;5023797;28;20022;-72
2023/07/30 03:04:04;;;;;;;21.88;10.15;;;15.40;99.90;;;;;;5023531;28;20387;-71
2023/07/30 03:06:29;;;;;;;23.33;10.70;;;15.40;99.90;;;;;;5024486;28;20030;-71
2023/07/30 03:08:55;;;;;;;25.50;10.73;;;15.40;99.90;;;;;;5024754;28;20501;-71
2023/07/30 03:11:22;;;;;;;24.20;10.80;;;15.40;99.90;;;;;;5022652;28;20111;-72
2023/07/30 03:13:47;;;;;;;23.35;10.82;;;15.40;99.90;;;;;;5023632;28;20040;-72
2023/07/30 03:16:13;;;;;;;20.63;11.30;;;15.30;99.90;;;;;;5024811;28;20475;-72
2023/07/30 03:18:39;;;;;;;23.80;11.93;;;15.30;99.90;;;;;;5023286;28;20025;-71
2023/07/30 03:21:04;;;;;;;21.27;11.80;;;15.30;99.90;;;;;;5023706;28;20117;-73
2023/07/30 03:23:30;;;;;;;29.45;13.40;;;15.30;99.90;;;;;;5024587;28;20097;-72
2023/07/30 03:25:55;;;;;;;24.85;11.88;;;15.30;99.90;;;;;;5023197;28;20026;-72
2023/07/30 03:28:21;;;;;;;22.17;11.65;;;15.30;99.90;;;;;;5024412;28;20056;-72
2023/07/30 03:30:47;;;;;;;21.08;11.68;;;15.20;99.90;;;;;;5024288;28;20120;-72
2023/07/30 03:33:12;;;;;;;18.63;11.35;;;15.20;99.90;;;;;;5024663;28;20089;-74
2023/07/30 03:35:38;;;;;;;24.00;11.25;;;15.20;99.90;;;;;;5024578;28;20118;-72
2023/07/30 03:38:03;;;;;;;19.73;11.05;;;15.20;99.90;;;;;;5024090;28;20061;-70
2023/07/30 03:40:29;;;;;;;27.48;12.05;;;15.10;99.90;;;;;;5022871;28;20064;-71
2023/07/30 03:42:55;;;;;;;25.67;11.75;;;15.20;99.90;;;;;;5023986;28;20148;-72
2023/07/30 03:45:21;;;;;;;20.60;11.00;;;15.10;99.90;;;;;;5023901;28;20116;-71
2023/07/30 03:47:46;;;;;;;31.52;11.57;;;15.20;99.90;;;;;;5024058;28;20080;-72
2023/07/30 03:50:12;;;;;;;26.35;11.43;;;15.20;99.90;;;;;;5024330;28;20030;-71
2023/07/30 03:52:37;;;;;;;27.20;11.20;;;15.10;99.90;;;;;;5024046;28;20050;-76
2023/07/30 03:55:04;;;;;;;24.67;10.77;;;15.10;99.90;;;;;;5023914;28;20100;-72
2023/07/30 03:57:29;;;;;;;29.50;10.30;;;15.10;99.90;;;;;;5024922;28;20060;-71
2023/07/30 03:59:55;;;;;;;22.45;9.35;;;15.20;99.90;;;;;;5024100;28;20022;-73
2023/07/30 04:02:20;;;;;;;21.95;10.07;;;15.20;99.90;;;;;;5024048;28;20076;-72
2023/07/30 04:04:49;;;;;;;30.40;9.93;;;15.20;99.90;;;;;;5023760;28;20022;-73
2023/07/30 04:07:15;;;;;;;23.02;10.30;;;15.10;99.90;;;;;;5023112;28;20018;-71
2023/07/30 04:09:41;;;;;;;24.35;9.43;;;15.10;99.90;;;;;;5023700;28;20029;-72
2023/07/30 04:12:06;;;;;;;24.95;9.43;;;15.10;99.90;;;;;;5023853;28;20030;-70
2023/07/30 04:14:32;;;;;;;25.98;10.05;;;15.20;99.90;;;;;;5022004;28;20032;-70
2023/07/30 04:16:58;;;;;;;22.73;9.60;;;15.20;99.90;;;;;;5023743;28;20029;-71
2023/07/30 04:19:23;;;;;;;27.27;10.20;;;15.10;99.90;;;;;;5023784;28;20057;-71
2023/07/30 04:21:49;;;;;;;18.10;8.85;;;15.10;99.90;;;;;;5021437;28;20475;-73
2023/07/30 04:24:14;;;;;;;22.92;8.88;;;15.10;99.90;;;;;;5022716;28;20038;-72
2023/07/30 04:26:40;;;;;;;23.10;8.13;;;15.10;99.90;;;;;;5023400;28;20037;-72
2023/07/30 04:29:05;;;;;;;27.75;8.90;;;15.10;99.90;;;;;;5021675;28;20173;-72
2023/07/30 04:31:32;;;;;;;26.42;8.07;;;15.10;99.90;;;;;;5023317;28;20034;-72
2023/07/30 04:33:58;;;;;;;23.58;8.13;;;15.10;99.90;;;;;;5023163;28;20038;-70
2023/07/30 04:36:24;;;;;;;23.40;7.90;;;15.20;99.90;;;;;;5022957;28;20037;-72
2023/07/30 04:38:49;;;;;;;28.08;8.45;;;15.20;99.90;;;;;;5023076;28;20034;-72
2023/07/30 04:41:18;;;;;;;15.60;7.80;;;15.20;99.90;;;;;;5023267;28;20034;-72
2023/07/30 04:43:44;;;;;;;18.15;8.05;;;15.20;99.90;;;;;;5020831;28;20026;-72
2023/07/30 04:46:12;;;;;;;28.02;8.10;;;15.20;99.90;;;;;;5018098;28;20475;-73
2023/07/30 04:48:38;;;;;;;20.45;8.45;;;15.20;99.90;;;;;;5019191;28;20061;-73
2023/07/30 04:51:04;;;;;;;23.17;8.00;;;15.20;99.90;;;;;;5019536;28;20022;-72
2023/07/30 04:53:29;;;;;;;20.73;7.65;;;15.20;99.90;;;;;;5021631;28;20026;-73
2023/07/30 04:55:57;;;;;;;27.08;7.88;;;15.20;99.90;;;;;;5019502;28;20116;-73
2023/07/30 04:58:22;;;;;;;20.42;7.15;;;15.20;99.90;;;;;;5021982;28;20030;-73
2023/07/30 05:00:49;;;;;;;20.95;6.70;;;15.20;99.90;;;;;;5022590;28;20022;-73
2023/07/30 05:03:15;;;;;;;17.45;6.93;;;15.20;99.90;;;;;;5021430;28;20022;-72
2023/07/30 05:05:41;;;;;;;23.92;7.22;;;15.20;99.90;;;;;;5022207;28;20024;-72
2023/07/30 05:08:06;;;;;;;22.65;7.13;;;15.20;99.90;;;;;;5022405;28;20153;-72
2023/07/30 05:10:33;;;;;;;17.90;7.22;;;15.20;99.90;;;;;;5021190;28;21316;-72
2023/07/30 05:12:58;;;;;;;27.52;6.57;;;15.20;99.90;;;;;;5021775;28;20033;-74
2023/07/30 05:15:24;;;;;;;20.88;6.25;;;15.20;99.90;;;;;;5020535;28;20022;-73
2023/07/30 05:17:50;;;;;;;27.17;6.35;;;15.10;99.90;;;;;;5022065;28;20105;-72
2023/07/30 05:20:16;;;;;;;21.63;6.13;;;15.10;99.90;;;;;;5020912;28;20502;-73
2023/07/30 05:22:41;;;;;;;19.55;6.10;;;15.10;99.90;;;;;;5022111;28;20077;-73
2023/07/30 05:25:08;;;;;;;20.77;5.95;;;15.10;99.90;;;;;;5020173;28;20094;-75
2023/07/30 05:27:34;;;;;;;20.35;5.15;;;15.10;99.90;;;;;;5016719;28;20064;-71
2023/07/30 05:30:01;;;;;;;19.27;5.10;;;15.10;99.90;;;;;;5021167;28;20041;-72
2023/07/30 05:32:26;;;;;;;18.55;5.82;;;15.20;99.90;;;;;;5017727;28;20056;-72
2023/07/30 05:34:52;;;;;;;22.45;5.70;;;15.20;99.90;;;;;;5021846;28;20473;-72
2023/07/30 05:37:17;;;;;;;14.95;5.22;;;15.20;99.90;;;;;;5020636;28;20049;-73
2023/07/30 05:39:43;;;;;;;23.88;6.00;;;15.20;99.90;;;;;;5020584;28;20337;-72
2023/07/30 05:42:09;;;;;;;17.83;5.93;;;15.30;99.90;;;;;;5021066;28;20541;-73
2023/07/30 05:44:34;;;;;;;19.70;5.70;;;15.30;99.90;;;;;;5022172;28;20129;-73
2023/07/30 05:47:00;;;;;;;16.08;5.38;;;15.30;99.90;;;;;;5019679;28;20018;-72
2023/07/30 05:49:25;;;;;;;19.70;5.28;;;15.30;99.90;;;;;;5020622;28;20084;-72
2023/07/30 05:51:51;;;;;;;16.00;5.55;;;15.40;99.90;;;;;;5020542;28;20046;-71
2023/07/30 05:54:17;;;;;;;16.30;5.20;;;15.40;99.90;;;;;;5021884;28;20037;-72
2023/07/30 05:56:43;;;;;;;17.67;5.35;;;15.40;99.90;;;;;;5022108;28;20101;-74
2023/07/30 05:59:09;;;;;;;15.10;5.75;;;15.40;99.90;;;;;;5021555;28;20056;-73
2023/07/30 06:01:35;;;;;;;16.73;5.65;;;15.50;99.90;;;;;;5021790;28;20026;-75
2023/07/30 06:04:00;;;;;;;20.45;6.10;;;15.50;99.90;;;;;;5021972;28;20018;-73
2023/07/30 06:06:29;;;;;;;16.33;5.72;;;15.60;99.90;;;;;;5020426;28;20025;-74
2023/07/30 06:08:55;;;;;;;18.58;5.82;;;15.60;99.90;;;;;;5021485;28;20375;-71
2023/07/30 06:11:20;;;;;;;21.85;6.10;;;15.60;99.90;;;;;;5021999;28;20045;-74
2023/07/30 06:13:46;;;;;;;19.95;6.32;;;15.70;99.90;;;;;;5018813;28;20485;-73
2023/07/30 06:16:12;;;;;;;20.92;6.45;;;15.70;99.90;;;;;;5020228;28;20018;-77
2023/07/30 06:18:38;;;;;;;17.83;5.68;;;15.80;99.90;;;;;;5020443;28;20030;-72
2023/07/30 06:21:04;;;;;;;21.13;6.05;;;15.80;99.90;;;;;;5020324;28;20022;-73
2023/07/30 06:23:29;;;;;;;17.55;6.28;;;15.80;99.90;;;;;;5021608;28;20430;-73
2023/07/30 06:25:55;;;;;;;20.40;5.90;;;15.80;99.90;;;;;;5020931;28;20052;-72
2023/07/30 06:28:20;;;;;;;23.08;6.18;;;15.90;99.90;;;;;;5021207;28;20037;-73
2023/07/30 06:30:46;;;;;;;23.65;6.68;;;16.00;99.90;;;;;;5021688;28;20065;-73
2023/07/30 06:33:12;;;;;;;21.35;6.90;;;16.00;99.90;;;;;;5020096;28;20025;-71
2023/07/30 06:35:37;;;;;;;18.65;6.68;;;16.10;99.90;;;;;;5020580;28;20033;-73
2023/07/30 06:38:03;;;;;;;28.38;6.18;;;16.10;99.90;;;;;;5019700;28;20064;-71
2023/07/30 06:40:28;;;;;;;27.02;6.90;;;16.20;99.90;;;;;;5021022;28;20104;-71
2023/07/30 06:42:54;;;;;;;24.25;7.10;;;16.20;99.90;;;;;;5020369;28;20086;-71
2023/07/30 06:45:20;;;;;;;21.98;6.90;;;16.20;99.90;;;;;;5021451;28;20033;-73
2023/07/30 06:47:45;;;;;;;19.50;6.00;;;16.20;99.90;;;;;;5024062;28;20703;-72
2023/07/30 06:50:11;;;;;;;28.65;6.75;;;16.30;99.90;;;;;;5020994;28;20026;-74
2023/07/30 06:52:37;;;;;;;21.25;6.85;;;16.30;99.90;;;;;;5023063;28;20056;-73
2023/07/30 06:55:03;;;;;;;31.05;7.97;;;16.30;99.90;;;;;;5023171;28;20037;-73
2023/07/30 06:57:30;;;;;;;20.08;6.32;;;16.40;99.90;;;;;;5024484;28;20025;-73
2023/07/30 06:59:56;;;;;;;23.20;7.05;;;16.50;99.90;;;;;;5024602;28;20029;-73
2023/07/30 07:02:22;;;;;;;31.13;7.30;;;16.50;99.90;;;;;;5022942;28;20045;-72
2023/07/30 07:04:47;;;;;;;17.88;6.93;;;16.60;99.90;;;;;;5022829;28;20026;-74
2023/07/30 07:07:13;;;;;;;28.25;7.50;;;16.70;99.90;;;;;;5024749;28;20030;-73
2023/07/30 07:09:39;;;;;;;24.05;7.70;;;16.70;99.90;;;;;;5022578;28;20510;-72
2023/07/30 07:12:05;;;;;;;29.05;7.32;;;16.70;99.90;;;;;;5022980;28;20025;-71
2023/07/30 07:14:31;;;;;;;21.73;9.13;;;16.70;99.90;;;;;;5023075;28;20180;-71
2023/07/30 07:16:56;;;;;;;21.05;8.32;;;16.70;99.90;;;;;;5023236;28;20494;-72
2023/07/30 07:19:22;;;;;;;27.80;7.72;;;16.70;99.90;;;;;;5022206;28;20093;-71
2023/07/30 07:21:48;;;;;;;26.55;8.52;;;16.80;99.90;;;;;;5023872;28;20049;-69
2023/07/30 07:24:14;;;;;;;28.67;7.70;;;16.80;99.90;;;;;;5023601;28;20037;-73
2023/07/30 07:26:39;;;;;;;29.52;8.65;;;16.90;99.90;;;;;;5021638;28;20096;-69
2023/07/30 07:29:05;;;;;;;28.50;8.00;;;16.90;99.90;;;;;;5020972;28;20038;-71
2023/07/30 07:31:31;;;;;;;24.48;7.53;;;17.00;99.90;;;;;;5022137;28;20030;-71
2023/07/30 07:33:56;;;;;;;27.08;7.35;;;17.00;99.90;;;;;;5021384;28;20069;-70
2023/07/30 07:36:22;;;;;;;24.05;8.05;;;17.10;99.90;;;;;;5021017;28;20285;-70
2023/07/30 07:38:48;;;;;;;27.98;6.68;;;17.20;99.90;;;;;;5023364;28;20037;-73
2023/07/30 07:41:18;;;;;;;24.73;6.00;;;17.30;99.90;;;;;;5024249;28;20034;-71
2023/07/30 07:43:44;;;;;;;21.92;7.03;;;17.40;99.90;;;;;;5021482;28;20018;-66
2023/07/30 07:46:13;;;;;;;22.33;7.10;;;17.50;99.90;;;;;;5022608;28;20045;-69
2023/07/30 07:48:40;;;;;;;17.98;5.72;;;17.70;99.90;;;;;;5023045;28;20546;-72
2023/07/30 07:51:05;;;;;;;23.40;6.28;;;17.70;99.90;;;;;;5022717;28;20033;-70
2023/07/30 07:53:31;;;;;;;22.08;6.88;;;17.70;99.90;;;;;;5023196;28;20026;-70
2023/07/30 07:55:57;;;;;;;19.63;6.18;;;17.80;99.90;;;;;;5022467;28;20026;-69
2023/07/30 07:58:22;;;;;;;29.90;7.00;;;17.80;99.90;;;;;;5022453;28;20119;-69
2023/07/30 08:00:48;;;;;;;20.55;6.10;;;17.80;99.90;;;;;;5022760;28;20036;-69
2023/07/30 08:03:13;;;;;;;17.45;5.63;;;17.80;99.90;;;;;;5020284;28;20030;-74
2023/07/30 08:05:39;;;;;;;18.73;4.43;;;17.80;99.90;;;;;;5019705;28;20037;-70
2023/07/30 08:08:04;;;;;;;17.85;4.43;;;17.80;99.90;;;;;;5018769;28;20081;-68
2023/07/30 08:10:30;;;;;;;15.95;4.70;;;17.90;99.90;;;;;;5022789;28;20034;-72
2023/07/30 08:12:55;;;;;;;23.50;4.57;;;17.90;99.90;;;;;;5021404;28;20033;-72
2023/07/30 08:15:21;;;;;;;12.57;4.32;;;17.90;99.90;;;;;;5019152;28;20056;-69
2023/07/30 08:17:47;;;;;;;16.77;4.30;;;18.00;99.90;;;;;;5021840;28;20026;-71
2023/07/30 08:20:13;;;;;;;22.02;4.95;;;18.00;99.90;;;;;;5022875;28;20032;-71
2023/07/30 08:22:39;;;;;;;17.45;4.32;;;18.10;99.90;;;;;;5020342;28;20549;-70
2023/07/30 08:25:05;;;;;;;16.55;4.28;;;18.20;99.90;;;;;;5020827;28;20026;-73
2023/07/30 08:27:31;;;;;;;18.27;3.75;;;18.30;99.90;;;;;;5019965;28;20034;-68
2023/07/30 08:29:57;;;;;;;15.15;3.85;;;18.30;99.90;;;;;;5021371;28;20033;-69
2023/07/30 08:32:22;;;;;;;18.85;3.85;;;18.40;99.90;;;;;;5024663;28;20481;-72
2023/07/30 08:34:48;;;;;;;14.30;3.72;;;18.40;99.90;;;;;;5023283;28;20030;-69
2023/07/30 08:37:14;;;;;;;13.57;4.10;;;18.50;99.90;;;;;;5022917;28;20070;-71
2023/07/30 08:39:40;;;;;;;13.98;3.97;;;18.50;99.90;;;;;;5020817;28;20079;-72
2023/07/30 08:42:05;;;;;;;13.77;3.85;;;18.60;99.90;;;;;;5022931;28;20026;-70
2023/07/30 08:44:31;;;;;;;17.52;4.38;;;18.60;99.90;;;;;;5021946;28;20038;-76
2023/07/30 08:46:57;;;;;;;15.65;4.28;;;18.60;99.90;;;;;;5021453;28;20230;-71
2023/07/30 08:49:22;;;;;;;20.77;4.88;;;18.60;99.90;;;;;;5022765;28;20041;-72
2023/07/30 08:51:53;;;;;;;19.85;4.85;;;18.60;99.90;;;;;;5020995;28;20125;-70
2023/07/30 08:54:22;;;;;;;14.77;4.10;;;18.50;99.90;;;;;;5022336;28;20041;-73
2023/07/30 08:56:48;;;;;;;14.50;5.03;;;18.50;99.90;;;;;;5022380;28;20064;-72
2023/07/30 08:59:15;;;;;;;18.40;4.85;;;18.40;99.90;;;;;;5021981;28;20061;-71
2023/07/30 09:01:44;;;;;;;19.73;5.38;;;18.30;99.90;;;;;;5020620;28;20032;-69
2023/07/30 09:04:09;;;;;;;21.08;5.40;;;18.20;99.90;;;;;;5020757;28;20025;-72
2023/07/30 09:06:35;;;;;;;14.43;4.72;;;18.10;99.90;;;;;;5020830;28;20075;-69
2023/07/30 09:09:02;;;;;;;17.33;5.40;;;18.10;99.90;;;;;;5019834;28;20064;-73
2023/07/30 09:11:28;;;;;;;16.83;5.70;;;18.00;99.90;;;;;;5019441;28;20030;-71
2023/07/30 09:13:57;;;;;;;17.70;6.28;;;18.00;99.90;;;;;;5021143;28;20418;-72
2023/07/30 09:16:26;;;;;;;23.27;6.15;;;18.00;99.90;;;;;;5019255;28;20026;-71
2023/07/30 09:18:53;;;;;;;19.45;6.18;;;18.10;99.90;;;;;;5019666;28;20041;-73
2023/07/30 09:21:19;;;;;;;18.13;6.43;;;18.10;99.90;;;;;;5020715;28;20494;-72
2023/07/30 09:23:46;;;;;;;15.25;6.13;;;18.20;99.90;;;;;;5021983;28;20029;-74
2023/07/30 09:26:12;;;;;;;20.23;6.72;;;18.30;99.90;;;;;;5019988;28;20025;-71
2023/07/30 09:28:39;;;;;;;23.15;6.88;;;18.30;99.90;;;;;;5021706;28;20052;-71
2023/07/30 09:31:07;;;;;;;24.10;6.63;;;18.30;99.90;;;;;;5018898;28;20085;-72
2023/07/30 09:33:34;;;;;;;27.83;7.72;;;18.30;99.90;;;;;;5020847;28;20058;-70
2023/07/30 09:36:04;;;;;;;26.15;8.32;;;18.30;99.90;;;;;;5021902;28;20102;-73
2023/07/30 09:38:32;;;;;;;20.92;7.05;;;18.30;99.90;;;;;;5020396;28;20014;-74
2023/07/30 09:41:02;;;;;;;27.05;7.05;;;18.40;99.90;;;;;;5020309;28;20029;-70
2023/07/30 09:43:35;;;;;;;22.38;7.57;;;18.50;99.90;;;;;;5021109;28;20701;-72
2023/07/30 09:46:07;;;;;;;15.57;6.78;;;18.60;99.90;;;;;;5021129;28;20034;-72
2023/07/30 09:48:34;;;;;;;23.23;6.72;;;18.80;99.90;;;;;;5018840;28;20034;-70
2023/07/30 09:51:02;;;;;;;21.80;6.97;;;18.90;99.90;;;;;;5020149;28;20018;-72
2023/07/30 09:53:34;;;;;;;18.15;6.68;;;19.00;99.90;;;;;;5019066;28;20018;-72
2023/07/30 09:56:05;;;;;;;20.02;6.43;;;19.10;99.90;;;;;;5017078;28;20042;-73
2023/07/30 09:58:31;;;;;;;20.10;6.75;;;19.20;99.90;;;;;;5018003;28;20386;-72
2023/07/30 10:01:01;;;;;;;22.50;7.18;;;19.20;99.90;;;;;;5020715;28;20037;-71
2023/07/30 10:03:27;;;;;;;16.92;5.95;;;19.20;99.90;;;;;;5021113;28;20030;-70
2023/07/30 10:06:02;;;;;;;15.27;4.68;;;19.20;99.90;;;;;;5021377;28;20045;-70
2023/07/30 10:08:31;;;;;;;18.50;5.45;;;19.10;99.90;;;;;;5020087;28;20069;-71
2023/07/30 10:10:58;;;;;;;16.23;5.57;;;19.10;99.90;;;;;;5019153;28;20080;-73
2023/07/30 10:13:25;;;;;;;22.92;6.13;;;19.10;99.90;;;;;;5019057;28;20068;-72
2023/07/30 10:15:51;;;;;;;17.30;5.25;;;19.20;99.90;;;;;;5020094;28;20033;-71
2023/07/30 10:18:16;;;;;;;20.80;5.90;;;19.30;99.90;;;;;;5017853;28;20026;-71
2023/07/30 10:20:54;;;;;;;17.75;5.57;;;19.40;99.90;;;;;;5020871;28;20026;-71
2023/07/30 10:23:19;;;;;;;18.48;5.18;;;19.50;99.90;;;;;;5024310;28;20030;-74
2023/07/30 10:25:49;;;;;;;19.23;5.75;;;19.50;99.90;;;;;;5023452;28;20122;-71
2023/07/30 10:28:36;;;;;;;16.10;5.05;;;19.60;99.90;;;;;;5021682;28;20034;-72
2023/07/30 10:31:04;;;;;;;14.45;4.07;;;19.60;99.90;;;;;;5019896;28;20132;-71
2023/07/30 10:33:53;;;;;;;12.27;4.03;;;19.60;99.90;;;;;;5018397;28;20101;-73
2023/07/30 10:36:36;;;;;;;9.43;3.20;;;19.70;99.90;;;;;;5013732;28;20033;-70
2023/07/30 10:39:11;;;;;;;13.35;4.28;;;19.70;99.90;;;;;;5021585;28;20458;-69
2023/07/30 10:41:38;;;;;;;18.48;4.88;;;19.80;99.90;;;;;;5024354;28;20072;-72
2023/07/30 10:44:04;;;;;;;17.70;4.57;;;19.80;99.90;;;;;;5024739;28;20014;-72
2023/07/30 10:46:29;;;;;;;12.80;4.03;;;19.70;99.90;;;;;;5023437;28;20029;-72
2023/07/30 10:48:55;;;;;;;18.58;4.63;;;19.60;99.90;;;;;;5020786;28;20125;-69
2023/07/30 10:51:22;;;;;;;11.85;3.35;;;19.70;99.90;;;;;;5024053;28;20057;-69
2023/07/30 10:53:50;;;;;;;11.18;3.90;;;19.70;99.90;;;;;;5023787;28;20038;-75
2023/07/30 10:56:18;;;;;;;15.98;4.32;;;19.70;99.90;;;;;;5024252;28;20080;-74
2023/07/30 10:58:50;;;;;;;14.38;3.75;;;19.60;99.90;;;;;;5023259;28;20033;-71
2023/07/30 11:01:16;;;;;;;14.43;3.90;;;19.70;99.90;;;;;;5023925;28;20037;-72
2023/07/30 11:03:42;;;;;;;10.38;3.88;;;19.80;99.90;;;;;;5023270;28;20030;-75
2023/07/30 11:06:10;;;;;;;12.68;3.70;;;19.90;99.90;;;;;;5021426;28;20085;-74
2023/07/30 11:08:38;;;;;;;11.23;4.20;;;19.90;99.90;;;;;;5023565;28;20065;-72
2023/07/30 11:11:05;;;;;;;15.55;4.50;;;19.80;99.90;;;;;;5024316;28;20030;-71
2023/07/30 11:13:43;;;;;;;18.98;4.68;;;19.80;99.90;;;;;;5024129;28;20033;-72
2023/07/30 11:16:09;;;;;;;14.85;4.40;;;19.80;99.90;;;;;;5024421;28;20013;-72
2023/07/30 11:18:36;;;;;;;17.67;4.63;;;19.90;99.90;;;;;;5024357;28;20030;-72
2023/07/30 11:21:03;;;;;;;14.68;4.55;;;19.90;99.90;;;;;;5023337;28;20041;-71
2023/07/30 11:23:28;;;;;;;14.15;4.50;;;19.90;99.90;;;;;;5023345;28;20026;-68
2023/07/30 11:25:54;;;;;;;13.73;4.30;;;19.90;99.90;;;;;;5023113;28;20461;-72
2023/07/30 11:28:38;;;;;;;10.48;3.58;;;19.90;99.90;;;;;;5023256;28;20066;-72
2023/07/30 11:31:08;;;;;;;10.38;3.38;;;19.90;99.90;;;;;;5020853;28;20537;-72
2023/07/30 11:33:36;;;;;;;11.52;3.42;;;19.90;99.90;;;;;;5022619;28;20105;-72
2023/07/30 11:36:03;;;;;;;14.35;3.88;;;19.90;99.90;;;;;;5023054;28;20022;-74
2023/07/30 11:38:31;;;;;;;12.25;3.25;;;19.80;99.90;;;;;;5022837;28;20034;-70
2023/07/30 11:40:57;;;;;;;11.40;3.38;;;19.70;99.90;;;;;;5021602;28;20034;-74
2023/07/30 11:43:23;;;;;;;8.25;3.28;;;19.60;99.90;;;;;;5021221;28;20049;-74
2023/07/30 11:46:05;;;;;;;12.60;3.70;;;19.50;99.90;;;;;;5023187;28;20038;-72
2023/07/30 11:48:31;;;;;;;13.48;4.00;;;19.40;99.90;;;;;;5021438;28;20042;-72
2023/07/30 11:50:56;;;;;;;14.13;3.95;;;19.30;99.90;;;;;;5023475;28;20026;-74
2023/07/30 11:53:22;;;;;;;13.05;4.03;;;19.30;99.90;;;;;;5022651;28;20037;-72
2023/07/30 11:55:47;;;;;;;13.13;4.75;;;19.10;99.90;;;;;;5019142;28;20021;-70
2023/07/30 11:58:13;;;;;;;12.90;3.22;;;19.10;99.90;;;;;;5022077;28;20136;-73
2023/07/30 12:00:40;;;;;;;11.43;2.65;;;18.90;99.90;;;;;;5021652;28;20082;-76
2023/07/30 12:03:11;;;;;;;8.27;2.47;;;18.50;99.90;;;;;;5021839;28;20034;-73
2023/07/30 12:05:38;;;;;;;11.70;2.35;;;18.00;99.90;;;;;;5022609;28;20037;-75
2023/07/30 12:08:07;;;;;;;5.38;1.70;;;17.40;99.90;;;;;;5021829;28;20095;-71
2023/07/30 12:10:47;;;;;;;6.88;1.92;;;17.00;99.90;;;;;;5022116;28;20034;-71
2023/07/30 12:13:17;;;;;;;7.13;2.35;;;16.60;99.90;;;;;;5023081;28;21344;-72
2023/07/30 12:15:52;;;;;;;5.60;2.10;;;16.40;99.90;;;;;;5022370;28;20085;-73
2023/07/30 12:18:19;;;;;;;10.18;2.05;;;16.20;99.90;;;;;;5021870;28;20034;-73
2023/07/30 12:20:45;;;;;;;4.28;2.08;;;16.00;99.90;;;;;;5021348;28;20018;-75
2023/07/30 12:23:10;;;;;;;5.78;1.70;;;15.90;99.90;;;;;;5020216;28;20416;-74
2023/07/30 12:25:36;;;;;;;8.80;2.28;;;15.70;99.90;;;;;;5021651;28;20026;-72
2023/07/30 12:28:02;;;;;;;4.40;1.92;;;15.70;99.90;;;;;;5022677;28;20486;-72
2023/07/30 12:30:28;;;;;;;6.78;1.83;;;15.60;99.90;;;;;;5020933;28;20546;-73